Time;durP1;ratioP1;P1;durP2;ratioP2;P2;SDS_P1;SDS_P2;PMS_P1;PMS_P2;Temp;Humidity;BMP_temperature;BMP_pressure;BME280_temperature;BME280_humidity;BME280_pressure;Samples;Min_cycle;Max_cycle;Signal;HPM_P1;HPM_P2
2021/11/14 00:00:12;;;;;;;45.03;21.05;;;;;;;8.84;100.00;101380.09;5004927;28;20096;-76
2021/11/14 00:02:38;;;;;;;33.60;18.58;;;;;;;8.80;100.00;101382.13;5004778;28;20030;-76
2021/11/14 00:05:05;;;;;;;32.17;17.92;;;;;;;8.76;100.00;101378.16;4984686;28;20572;-76
2021/11/14 00:07:31;;;;;;;44.70;20.45;;;;;;;8.77;100.00;101378.00;4993033;28;20064;-76
2021/11/14 00:09:56;;;;;;;38.78;18.80;;;;;;;8.75;100.00;101373.91;4988467;28;20033;-76
2021/11/14 00:12:22;;;;;;;34.53;17.95;;;;;;;8.84;100.00;101375.72;5004827;28;20029;-76
2021/11/14 00:14:47;;;;;;;36.63;17.88;;;;;;;8.78;100.00;101381.44;5003300;28;20044;-76
2021/11/14 00:17:13;;;;;;;40.38;20.30;;;;;;;8.76;100.00;101383.34;4972042;28;20030;-76
2021/11/14 00:19:40;;;;;;;41.30;20.75;;;;;;;8.74;100.00;101386.03;5005476;28;20276;-76
2021/11/14 00:22:05;;;;;;;41.10;20.77;;;;;;;8.69;100.00;101385.59;4988852;28;20038;-76
2021/11/14 00:24:31;;;;;;;37.53;21.42;;;;;;;8.70;100.00;101383.81;4988132;28;20052;-76
2021/11/14 00:26:56;;;;;;;48.42;18.88;;;;;;;8.69;100.00;101397.72;5003977;28;20080;-76
2021/11/14 00:29:22;;;;;;;46.53;20.67;;;;;;;8.68;100.00;101394.31;4986216;28;20120;-76
2021/11/14 00:31:48;;;;;;;46.45;21.75;;;;;;;8.68;100.00;101403.81;4992063;28;20048;-76
2021/11/14 00:34:13;;;;;;;45.72;20.40;;;;;;;8.69;100.00;101408.88;4987240;28;20442;-76
2021/11/14 00:36:42;;;;;;;52.97;21.42;;;;;;;8.69;100.00;101395.94;4986505;28;20235;-76
2021/11/14 00:39:11;;;;;;;53.60;23.83;;;;;;;8.70;100.00;101399.34;4987458;28;20040;-76
2021/11/14 00:41:36;;;;;;;61.53;22.98;;;;;;;8.70;100.00;101399.34;4985504;28;20116;-76
2021/11/14 00:44:02;;;;;;;59.60;24.95;;;;;;;8.70;100.00;101401.94;4986213;28;20400;-76
2021/11/14 00:46:27;;;;;;;65.93;24.00;;;;;;;8.70;100.00;101407.94;4987250;28;20449;-76
2021/11/14 00:48:53;;;;;;;59.63;24.75;;;;;;;8.70;100.00;101410.53;5005230;28;20029;-75
2021/11/14 00:51:25;;;;;;;67.57;25.38;;;;;;;8.72;100.00;101400.03;5004185;28;20079;-76
2021/11/14 00:53:51;;;;;;;63.63;25.25;;;;;;;8.68;100.00;101409.00;4991391;28;20053;-76
2021/11/14 00:56:17;;;;;;;66.00;26.75;;;;;;;8.67;100.00;101392.66;4971262;28;20037;-76
2021/11/14 00:58:42;;;;;;;63.97;26.02;;;;;;;8.67;100.00;101405.59;5004499;28;20430;-76
2021/11/14 01:01:08;;;;;;;58.33;24.80;;;;;;;8.67;100.00;101407.38;5005024;28;20330;-76
2021/11/14 01:03:33;;;;;;;66.20;26.98;;;;;;;8.69;100.00;101413.22;5004605;28;20033;-76
2021/11/14 01:05:59;;;;;;;59.60;27.20;;;;;;;8.69;100.00;101415.81;4992552;28;20030;-76
2021/11/14 01:08:28;;;;;;;72.22;28.83;;;;;;;8.68;100.00;101407.25;4987049;28;20038;-76
2021/11/14 01:10:57;;;;;;;84.63;28.25;;;;;;;8.67;100.00;101418.53;5001752;28;20030;-76
2021/11/14 01:13:23;;;;;;;77.97;30.30;;;;;;;8.67;100.00;101422.88;4985664;28;20254;-76
2021/11/14 01:15:50;;;;;;;71.75;28.70;;;;;;;8.64;100.00;101425.72;4989797;28;20530;-76
2021/11/14 01:18:18;;;;;;;69.63;29.30;;;;;;;8.64;100.00;101428.28;5004755;28;20030;-76
2021/11/14 01:20:47;;;;;;;62.72;26.85;;;;;;;8.63;100.00;101418.91;4987776;28;20117;-77
2021/11/14 01:23:16;;;;;;;64.88;27.80;;;;;;;8.65;100.00;101430.75;4986133;28;20550;-76
2021/11/14 01:25:42;;;;;;;58.95;27.85;;;;;;;8.64;100.00;101442.03;5007607;28;20101;-77
2021/11/14 01:28:08;;;;;;;57.10;23.90;;;;;;;8.68;100.00;101447.78;4991437;28;20030;-76
2021/11/14 01:30:36;;;;;;;51.45;24.23;;;;;;;8.65;100.00;101443.69;4995270;28;20526;-76
2021/11/14 01:33:05;;;;;;;47.42;24.40;;;;;;;8.73;100.00;101448.22;4990224;28;20057;-76
2021/11/14 01:35:31;;;;;;;49.40;23.75;;;;;;;8.64;100.00;101444.63;5007273;28;20482;-76
2021/11/14 01:37:58;;;;;;;46.80;23.25;;;;;;;8.64;100.00;101448.97;4985777;28;20038;-76
2021/11/14 01:40:27;;;;;;;43.08;23.08;;;;;;;8.69;100.00;101452.00;4995119;28;20061;-76
2021/11/14 01:42:54;;;;;;;41.53;22.52;;;;;;;8.60;100.00;101447.59;4989418;28;20057;-76
2021/11/14 01:45:21;;;;;;;41.10;21.35;;;;;;;8.61;100.00;101459.56;4974486;28;20116;-76
2021/11/14 01:47:48;;;;;;;44.40;22.05;;;;;;;8.55;100.00;101458.31;4991498;28;20029;-76
2021/11/14 01:50:15;;;;;;;37.95;21.05;;;;;;;8.53;100.00;101453.28;4991871;28;20029;-76
2021/11/14 01:52:43;;;;;;;35.88;19.55;;;;;;;8.51;100.00;101454.34;4987223;28;20033;-77
2021/11/14 01:55:10;;;;;;;33.88;20.02;;;;;;;8.50;100.00;101456.13;4990166;28;20440;-76
2021/11/14 01:57:37;;;;;;;36.80;20.40;;;;;;;8.53;100.00;101461.03;4990666;28;20026;-77
2021/11/14 02:00:07;;;;;;;33.38;18.60;;;;;;;8.51;100.00;101459.50;4990426;28;20061;-76
2021/11/14 02:02:37;;;;;;;34.97;18.42;;;;;;;8.52;100.00;101458.56;4993063;28;20048;-78
2021/11/14 02:05:06;;;;;;;34.13;18.33;;;;;;;8.50;100.00;101466.44;5006527;28;20764;-77
2021/11/14 02:07:32;;;;;;;30.42;18.45;;;;;;;8.47;100.00;101465.88;5006964;28;20037;-76
2021/11/14 02:09:58;;;;;;;27.65;17.27;;;;;;;8.46;100.00;101467.66;4992794;28;20070;-76
2021/11/14 02:12:24;;;;;;;33.08;18.55;;;;;;;8.46;100.00;101477.19;4995052;28;20061;-76
2021/11/14 02:14:50;;;;;;;26.80;16.70;;;;;;;8.46;100.00;101477.19;4989268;28;20057;-76
2021/11/14 02:17:15;;;;;;;26.85;16.42;;;;;;;8.45;100.00;101468.59;5007468;28;20182;-76
2021/11/14 02:19:41;;;;;;;29.23;17.00;;;;;;;8.46;100.00;101465.06;4989235;28;20025;-77
2021/11/14 02:22:06;;;;;;;26.25;15.88;;;;;;;8.48;100.00;101470.94;5006776;28;20041;-76
2021/11/14 02:25:02;;;;;;;26.15;16.00;;;;;;;8.49;100.00;101474.31;5064543;23;20059;-76
2021/11/14 02:27:36;;;;;;;24.95;14.32;;;;;;;8.48;100.00;101472.72;5031578;28;20560;-76
2021/11/14 02:30:29;;;;;;;27.92;15.50;;;;;;;8.48;100.00;101486.44;5028917;28;20036;-76
2021/11/14 02:33:13;;;;;;;24.00;14.70;;;;;;;8.45;100.00;101489.25;5013336;28;20028;-76
2021/11/14 02:36:00;;;;;;;23.30;15.13;;;;;;;8.46;100.00;101487.53;5024338;28;20072;-76
2021/11/14 02:39:00;;;;;;;21.88;14.25;;;;;;;8.45;100.00;101491.84;5013758;28;20045;-76
2021/11/14 02:45:11;;;;;;;24.23;13.68;;;;;;;8.41;100.00;101498.19;5045205;28;20029;-76
2021/11/14 02:47:39;;;;;;;23.42;14.52;;;;;;;8.41;100.00;101495.59;5027474;28;20041;-76
2021/11/14 02:50:18;;;;;;;22.20;13.38;;;;;;;8.41;100.00;101503.34;5053290;28;20444;-76
2021/11/14 02:52:52;;;;;;;21.15;13.25;;;;;;;8.41;100.00;101498.19;5029085;28;20504;-76
2021/11/14 02:55:49;;;;;;;24.65;13.73;;;;;;;8.37;100.00;101499.38;5042929;28;20109;-76
2021/11/14 02:58:35;;;;;;;22.70;13.32;;;;;;;8.35;100.00;101502.09;5025144;28;20168;-76
2021/11/14 03:01:11;;;;;;;22.90;14.55;;;;;;;8.34;100.00;101509.97;5023025;28;20029;-76
2021/11/14 03:03:39;;;;;;;28.95;15.85;;;;;;;8.35;100.00;101511.63;5014689;28;20390;-76
2021/11/14 03:06:12;;;;;;;24.20;13.65;;;;;;;8.31;100.00;101512.81;5028879;28;20025;-76
2021/11/14 03:09:11;;;;;;;25.15;14.70;;;;;;;8.29;100.00;101509.53;5054026;28;20025;-76
2021/11/14 03:15:08;;;;;;;30.25;14.68;;;;;;;8.27;100.00;101516.56;5038470;28;20044;-76
2021/11/14 03:17:48;;;;;;;24.17;14.35;;;;;;;8.25;100.00;101521.88;5053099;28;20461;-76
2021/11/14 03:21:08;;;;;;;26.33;15.10;;;;;;;8.27;100.00;101529.47;5045220;28;20021;-76
2021/11/14 03:24:12;;;;;;;28.33;15.70;;;;;;;8.27;100.00;101532.06;5034836;28;20135;-76
2021/11/14 03:26:49;;;;;;;28.75;16.77;;;;;;;8.25;100.00;101536.53;5030027;28;20087;-76
2021/11/14 03:29:14;;;;;;;29.75;15.82;;;;;;;8.25;100.00;101536.53;5013230;28;20630;-76
2021/11/14 03:31:44;;;;;;;28.40;15.38;;;;;;;8.25;100.00;101534.78;5060343;28;20039;-76
2021/11/14 03:34:10;;;;;;;33.22;15.85;;;;;;;8.26;100.00;101539.00;5030996;28;20032;-76
2021/11/14 03:36:35;;;;;;;31.55;18.05;;;;;;;8.32;100.00;101529.94;5027926;28;20569;-76
2021/11/14 03:39:05;;;;;;;42.20;17.98;;;;;;;8.28;100.00;101539.69;5027871;28;20033;-76
2021/11/14 03:41:38;;;;;;;32.00;16.98;;;;;;;8.26;100.00;101536.41;5050842;28;20044;-76
2021/11/14 03:44:27;;;;;;;29.15;16.15;;;;;;;8.27;100.00;101543.25;5036785;28;20033;-76
2021/11/14 03:46:52;;;;;;;40.92;19.42;;;;;;;8.29;100.00;101543.94;5057047;28;20028;-76
2021/11/14 03:49:18;;;;;;;35.97;19.00;;;;;;;8.27;100.00;101542.41;5043408;28;20557;-76
2021/11/14 03:51:46;;;;;;;44.80;20.13;;;;;;;8.26;100.00;101551.94;5046330;28;20044;-76
2021/11/14 03:54:12;;;;;;;46.72;21.30;;;;;;;8.26;100.00;101553.69;5034905;28;20040;-76
2021/11/14 03:56:42;;;;;;;38.45;19.58;;;;;;;8.23;100.00;101549.59;5054234;28;20401;-76
2021/11/14 03:59:58;;;;;;;38.33;18.63;;;;;;;8.23;100.00;101554.78;5023835;28;20532;-76
2021/11/14 04:02:35;;;;;;;37.63;20.00;;;;;;;8.27;100.00;101557.91;5022032;28;20147;-76
2021/11/14 04:05:45;;;;;;;37.58;19.15;;;;;;;8.23;100.00;101565.09;5025983;28;20578;-76
2021/11/14 04:08:26;;;;;;;38.50;19.23;;;;;;;8.23;100.00;101572.84;5026000;28;20040;-76
2021/11/14 04:11:05;;;;;;;39.70;19.52;;;;;;;8.24;100.00;101573.66;5011554;28;20033;-76
2021/11/14 04:14:10;;;;;;;47.05;22.95;;;;;;;8.25;100.00;101580.47;5075625;23;20057;-76
2021/11/14 04:16:41;;;;;;;41.08;19.17;;;;;;;8.22;100.00;101578.13;5024121;28;20064;-76
2021/11/14 04:20:05;;;;;;;33.80;18.15;;;;;;;8.23;100.00;101578.03;5021428;28;20499;-76
2021/11/14 04:25:50;;;;;;;38.88;19.48;;;;;;;8.22;100.00;101578.94;5043322;28;20632;-76
2021/11/14 04:29:07;;;;;;;40.67;20.23;;;;;;;8.23;100.00;101580.59;5043114;28;20041;-76
2021/11/14 04:31:50;;;;;;;37.95;19.70;;;;;;;8.22;100.00;101589.28;5026441;28;20060;-76
2021/11/14 04:34:20;;;;;;;37.78;19.60;;;;;;;8.24;100.00;101591.75;5023666;28;20033;-76
2021/11/14 04:36:46;;;;;;;37.75;19.02;;;;;;;8.23;100.00;101590.09;5030036;28;20496;-76
2021/11/14 04:39:28;;;;;;;40.10;21.20;;;;;;;8.23;100.00;101593.53;5047084;28;20041;-76
2021/11/14 04:42:02;;;;;;;43.13;21.60;;;;;;;8.26;100.00;101595.03;5029673;28;20036;-76
2021/11/14 04:44:28;;;;;;;39.95;20.25;;;;;;;8.25;100.00;101601.13;5033507;28;20469;-76
2021/11/14 04:46:54;;;;;;;38.33;19.70;;;;;;;8.24;100.00;101602.09;5008448;28;20025;-76
2021/11/14 04:49:20;;;;;;;40.78;21.27;;;;;;;8.23;100.00;101601.28;5050914;28;20032;-76
2021/11/14 04:51:50;;;;;;;37.50;20.48;;;;;;;8.24;100.00;101604.69;5009980;28;20035;-76
2021/11/14 04:54:17;;;;;;;40.15;20.55;;;;;;;8.22;100.00;101602.22;5010150;28;20397;-76
2021/11/14 04:56:43;;;;;;;34.47;19.40;;;;;;;8.23;100.00;101609.03;5028008;28;20246;-76
2021/11/14 04:59:10;;;;;;;44.17;23.92;;;;;;;8.28;100.00;101606.06;5043139;28;20047;-76
2021/11/14 05:01:36;;;;;;;42.47;21.77;;;;;;;8.20;100.00;101606.69;5021207;28;20045;-77
2021/11/14 05:04:02;;;;;;;40.63;21.83;;;;;;;8.21;100.00;101610.06;5030360;28;20514;-76
2021/11/14 05:06:27;;;;;;;41.90;21.45;;;;;;;8.23;100.00;101615.94;5030215;28;20021;-76
2021/11/14 05:08:53;;;;;;;46.92;23.67;;;;;;;8.21;100.00;101612.66;5048793;28;20508;-76
2021/11/14 05:11:19;;;;;;;44.55;22.27;;;;;;;8.19;100.00;101611.03;5048834;28;20094;-76
2021/11/14 05:13:44;;;;;;;39.53;22.45;;;;;;;8.17;100.00;101614.66;5032202;28;20120;-76
2021/11/14 05:16:10;;;;;;;44.42;21.83;;;;;;;8.15;100.00;101614.78;5019699;28;20033;-76
2021/11/14 05:18:36;;;;;;;48.30;22.77;;;;;;;8.16;100.00;101615.63;5058580;28;20095;-77
2021/11/14 05:21:02;;;;;;;44.97;21.85;;;;;;;8.14;100.00;101617.50;5052501;28;20035;-76
2021/11/14 05:24:16;;;;;;;45.47;23.92;;;;;;;8.18;100.00;101619.72;5058799;23;20037;-76
2021/11/14 05:26:54;;;;;;;44.35;22.23;;;;;;;8.15;100.00;101624.28;4989090;28;20037;-75
2021/11/14 05:29:41;;;;;;;44.15;22.23;;;;;;;8.13;100.00;101631.34;4994188;28;20168;-77
2021/11/14 05:32:35;;;;;;;46.63;23.08;;;;;;;8.12;100.00;101624.56;4991070;28;20034;-76
2021/11/14 05:38:40;;;;;;;43.15;23.23;;;;;;;8.07;100.00;101640.38;4980807;28;20046;-76
2021/11/14 05:41:06;;;;;;;45.47;23.20;;;;;;;8.07;100.00;101645.56;4988772;28;20038;-77
2021/11/14 05:43:31;;;;;;;46.65;22.02;;;;;;;8.08;100.00;101641.22;4991294;28;20038;-76
2021/11/14 05:45:57;;;;;;;48.00;24.08;;;;;;;8.07;100.00;101645.56;4970460;28;20113;-76
2021/11/14 05:48:34;;;;;;;50.38;24.48;;;;;;;8.08;100.00;101654.13;4980875;28;20061;-77
2021/11/14 05:51:17;;;;;;;44.95;23.95;;;;;;;7.99;100.00;101656.47;4985659;28;20125;-76
2021/11/14 05:56:49;;;;;;;53.35;25.02;;;;;;;7.91;100.00;101666.59;4992700;28;20034;-76
2021/11/14 06:02:10;;;;;;;;;;;;;;;7.86;100.00;101665.31;4990507;28;20030;-76
2021/11/14 06:07:19;;;;;;;43.78;22.48;;;;;;;7.86;100.00;101676.44;4992453;28;20399;-76
2021/11/14 06:09:45;;;;;;;46.22;22.30;;;;;;;7.85;100.00;101685.13;4996148;28;20026;-76
2021/11/14 06:12:13;;;;;;;42.47;22.73;;;;;;;7.84;100.00;101685.25;4964793;28;20069;-76
2021/11/14 06:14:39;;;;;;;43.83;23.05;;;;;;;7.82;100.00;101692.28;4991198;28;20502;-76
2021/11/14 06:17:05;;;;;;;41.47;22.08;;;;;;;7.82;100.00;101692.28;4987765;28;20435;-76
2021/11/14 06:19:33;;;;;;;41.10;21.52;;;;;;;7.82;100.00;101700.00;4993168;28;20034;-76
2021/11/14 06:22:01;;;;;;;43.45;22.33;;;;;;;7.79;100.00;101706.25;4967906;28;20034;-76
2021/11/14 06:24:42;;;;;;;;;;;;;;;;;;;;;
2021/11/14 06:27:14;;;;;;;51.63;23.38;;;;;;;7.75;100.00;101713.41;4987370;28;20554;-76
2021/11/14 06:29:40;;;;;;;46.40;23.58;;;;;;;7.74;100.00;101721.25;4989188;28;20416;-76
2021/11/14 06:32:11;;;;;;;51.95;26.38;;;;;;;7.80;100.00;101724.22;4991431;28;20032;-76
2021/11/14 06:34:37;;;;;;;45.88;23.17;;;;;;;7.73;100.00;101725.59;4972603;28;20034;-76
2021/11/14 06:37:04;;;;;;;50.00;24.15;;;;;;;7.71;100.00;101724.91;4990504;28;20041;-76
2021/11/14 06:39:30;;;;;;;47.78;25.40;;;;;;;7.71;100.00;101729.25;4970588;28;20134;-76
2021/11/14 06:41:58;;;;;;;53.15;27.83;;;;;;;7.68;100.00;101740.59;4994340;28;20034;-76
2021/11/14 06:44:42;;;;;;;62.80;27.10;;;;;;;7.67;100.00;101746.72;4987602;28;20425;-76
2021/11/14 06:47:08;;;;;;;51.55;26.58;;;;;;;7.65;100.00;101751.19;4970397;28;20027;-76
2021/11/14 06:49:33;;;;;;;65.53;31.80;;;;;;;7.62;100.00;101753.97;4994108;28;20030;-76
2021/11/14 06:51:59;;;;;;;62.67;31.88;;;;;;;7.63;100.00;101760.78;4992276;28;20105;-76
2021/11/14 06:54:24;;;;;;;67.20;32.72;;;;;;;7.60;100.00;101764.41;4967368;28;20038;-76
2021/11/14 06:56:50;;;;;;;65.47;33.78;;;;;;;7.63;100.00;101765.13;4979010;28;20038;-76
2021/11/14 06:59:15;;;;;;;68.78;33.10;;;;;;;7.59;100.00;101765.34;4989731;28;20109;-77
2021/11/14 07:01:41;;;;;;;68.70;31.77;;;;;;;7.65;100.00;101773.56;4987541;28;20049;-76
2021/11/14 07:04:06;;;;;;;69.55;33.17;;;;;;;7.67;100.00;101776.88;4969753;28;20569;-76
2021/11/14 07:06:32;;;;;;;69.65;33.85;;;;;;;7.73;99.69;101782.41;4968788;28;20191;-77
2021/11/14 07:08:57;;;;;;;78.78;36.15;;;;;;;7.70;99.66;101787.78;4988219;28;20169;-76
2021/11/14 07:11:23;;;;;;;76.40;37.75;;;;;;;7.60;99.11;101797.16;4970211;28;20037;-77
2021/11/14 07:13:48;;;;;;;80.20;37.35;;;;;;;7.49;99.35;101800.50;4969097;28;20050;-76
2021/11/14 07:16:15;;;;;;;89.13;40.00;;;;;;;7.59;99.09;101805.81;4985183;28;20070;-77
2021/11/14 07:18:40;;;;;;;86.93;39.47;;;;;;;7.59;98.06;101811.81;4985488;28;20038;-76
2021/11/14 07:21:06;;;;;;;87.03;39.95;;;;;;;7.60;98.45;101818.63;4969457;28;20049;-77
2021/11/14 07:23:32;;;;;;;82.80;39.55;;;;;;;7.52;98.78;101820.13;4973561;28;20542;-78
2021/11/14 07:25:58;;;;;;;87.07;40.42;;;;;;;7.51;98.98;101819.28;4987078;28;20286;-77
2021/11/14 07:28:23;;;;;;;90.78;41.58;;;;;;;7.47;99.09;101825.59;4986154;28;20395;-76
2021/11/14 07:30:49;;;;;;;88.35;40.60;;;;;;;7.47;99.32;101835.09;4967888;28;20403;-77
2021/11/14 07:33:15;;;;;;;80.32;37.33;;;;;;;7.44;99.73;101835.31;4975171;28;20046;-77
2021/11/14 07:35:40;;;;;;;86.47;39.25;;;;;;;7.45;99.59;101834.41;4971144;28;20034;-78
2021/11/14 07:38:06;;;;;;;85.80;37.58;;;;;;;7.43;98.93;101831.94;4988322;28;20030;-77
2021/11/14 07:40:32;;;;;;;90.55;40.03;;;;;;;7.42;99.07;101835.41;4970903;28;20451;-77
2021/11/14 07:42:58;;;;;;;79.95;37.25;;;;;;;7.40;99.14;101838.13;4991589;28;20394;-77
2021/11/14 07:45:27;;;;;;;82.28;38.22;;;;;;;7.40;99.17;101840.72;4968673;28;20038;-77
2021/11/14 07:47:53;;;;;;;81.32;38.97;;;;;;;7.38;99.50;101846.91;4977723;28;20092;-76
2021/11/14 07:50:21;;;;;;;80.38;37.22;;;;;;;7.38;99.59;101849.47;4974421;28;20038;-77
2021/11/14 07:52:47;;;;;;;79.30;36.78;;;;;;;7.43;99.71;101850.00;4952620;28;20407;-76
2021/11/14 07:55:14;;;;;;;77.10;36.95;;;;;;;7.40;99.68;101852.78;4968822;28;20061;-76
2021/11/14 07:57:43;;;;;;;86.07;36.67;;;;;;;7.38;99.45;101863.22;4969203;28;20110;-76
2021/11/14 08:00:20;;;;;;;90.47;40.10;;;;;;;7.37;99.37;101868.50;4967620;28;20030;-77
2021/11/14 08:02:46;;;;;;;82.72;36.10;;;;;;;7.33;99.43;101862.72;4986053;28;20176;-77
2021/11/14 08:05:12;;;;;;;82.90;36.80;;;;;;;7.32;99.31;101876.53;4969033;28;20022;-77
2021/11/14 08:07:38;;;;;;;69.63;32.35;;;;;;;7.36;98.79;101866.84;4968729;28;20054;-77
2021/11/14 08:10:06;;;;;;;71.20;32.55;;;;;;;7.41;98.60;101875.91;4985664;28;20475;-77
2021/11/14 08:12:31;;;;;;;74.43;33.83;;;;;;;7.26;98.66;101886.50;4971497;28;20022;-77
2021/11/14 08:14:57;;;;;;;73.13;32.95;;;;;;;7.24;99.22;101890.94;4969558;28;20594;-77
2021/11/14 08:17:23;;;;;;;68.80;31.88;;;;;;;7.24;99.10;101884.00;4985399;28;20026;-77
2021/11/14 08:19:48;;;;;;;68.53;30.83;;;;;;;7.21;99.05;101890.22;4971259;28;20046;-78
2021/11/14 08:22:14;;;;;;;72.05;31.52;;;;;;;7.22;99.33;101891.84;4994960;28;20038;-76
2021/11/14 08:24:40;;;;;;;70.55;31.20;;;;;;;7.25;99.40;101900.31;4986004;28;20089;-77
2021/11/14 08:27:05;;;;;;;67.45;33.55;;;;;;;7.21;99.54;101905.69;4986070;28;20034;-77
2021/11/14 08:29:31;;;;;;;71.15;32.47;;;;;;;7.27;98.52;101908.75;4971974;28;20089;-77
2021/11/14 08:31:57;;;;;;;68.70;31.75;;;;;;;7.27;98.72;101909.59;4991916;28;20331;-78
2021/11/14 08:34:22;;;;;;;74.10;32.53;;;;;;;7.22;98.45;101909.09;4989375;28;20038;-77
2021/11/14 08:36:48;;;;;;;71.05;32.22;;;;;;;7.22;98.91;101912.50;4970540;28;20423;-77
2021/11/14 08:39:13;;;;;;;62.53;29.58;;;;;;;7.23;99.07;101913.31;4968618;28;20128;-76
2021/11/14 08:41:57;;;;;;;63.33;29.20;;;;;;;7.21;98.96;101910.84;4971105;28;20080;-77
2021/11/14 08:44:25;;;;;;;72.00;30.45;;;;;;;7.18;99.31;101915.41;4984975;28;20031;-77
2021/11/14 08:46:52;;;;;;;69.15;29.73;;;;;;;7.21;99.30;101920.34;4974912;28;20332;-77
2021/11/14 08:49:18;;;;;;;66.82;29.85;;;;;;;7.25;98.94;101921.75;4971502;28;20069;-77
2021/11/14 08:51:45;;;;;;;72.93;29.83;;;;;;;7.25;98.30;101915.78;4967944;28;20499;-77
2021/11/14 08:54:10;;;;;;;69.03;30.83;;;;;;;7.20;98.44;101929.03;4970444;28;20521;-77
2021/11/14 08:56:36;;;;;;;71.38;31.02;;;;;;;7.23;98.15;101933.94;4985164;28;20049;-77
2021/11/14 08:59:04;;;;;;;71.35;30.83;;;;;;;7.30;98.51;101929.19;4967091;28;20042;-77
2021/11/14 09:01:30;;;;;;;76.28;30.02;;;;;;;7.27;98.67;101931.97;4968059;28;20034;-77
2021/11/14 09:03:56;;;;;;;71.72;31.65;;;;;;;7.30;97.84;101940.34;4986072;28;20038;-77
2021/11/14 09:06:21;;;;;;;73.00;31.15;;;;;;;7.27;98.19;101939.72;4989500;28;20117;-77
2021/11/14 09:08:47;;;;;;;78.60;32.22;;;;;;;7.24;98.12;101948.50;4968452;28;20041;-76
2021/11/14 09:11:13;;;;;;;69.35;30.50;;;;;;;7.20;98.12;101949.66;4972042;28;20411;-77
2021/11/14 09:13:38;;;;;;;70.38;28.83;;;;;;;7.22;98.44;101948.63;4967000;28;20038;-77
2021/11/14 09:16:04;;;;;;;69.60;30.92;;;;;;;7.29;98.71;101953.34;4983028;28;20476;-78
2021/11/14 09:18:30;;;;;;;78.30;31.30;;;;;;;7.33;98.75;101959.97;4990667;28;20075;-77
2021/11/14 09:20:56;;;;;;;79.60;31.27;;;;;;;7.27;97.93;101960.38;4952138;28;20503;-78
2021/11/14 09:23:21;;;;;;;77.45;31.67;;;;;;;7.28;98.01;101964.59;4955583;28;20145;-77
2021/11/14 09:25:47;;;;;;;72.35;30.73;;;;;;;7.32;98.10;101968.63;4969221;28;20475;-77
2021/11/14 09:28:15;;;;;;;69.72;30.38;;;;;;;7.35;98.01;101963.25;4988729;28;20038;-76
2021/11/14 09:30:44;;;;;;;76.95;31.48;;;;;;;7.35;98.20;101964.06;4968007;28;20495;-77
2021/11/14 09:33:11;;;;;;;76.40;32.47;;;;;;;7.40;98.27;101969.75;4970245;28;20469;-76
2021/11/14 09:35:37;;;;;;;80.88;33.17;;;;;;;7.40;98.34;101968.91;4985326;28;20073;-76
2021/11/14 09:38:04;;;;;;;75.57;32.17;;;;;;;7.50;96.76;101976.84;4972515;28;20037;-77
2021/11/14 09:40:30;;;;;;;70.35;30.75;;;;;;;7.54;97.08;101975.69;4979588;28;20096;-78
2021/11/14 09:42:57;;;;;;;75.07;31.15;;;;;;;7.51;96.55;101979.31;4968470;28;20042;-78
2021/11/14 09:45:27;;;;;;;79.95;33.08;;;;;;;7.42;97.40;101985.09;4971138;28;20487;-76
2021/11/14 09:47:53;;;;;;;81.18;33.92;;;;;;;7.43;97.48;101986.75;4987943;28;20061;-77
2021/11/14 09:50:18;;;;;;;85.10;35.80;;;;;;;7.48;96.67;101995.03;4989448;28;20131;-77
2021/11/14 09:52:44;;;;;;;75.32;34.95;;;;;;;7.50;96.43;101993.16;4988504;28;20034;-76
2021/11/14 09:55:11;;;;;;;81.32;34.55;;;;;;;7.46;97.05;101990.88;4969838;28;20602;-78
2021/11/14 09:57:38;;;;;;;79.80;33.88;;;;;;;7.50;97.61;101997.50;4993025;28;20014;-77
2021/11/14 10:00:07;;;;;;;73.95;32.92;;;;;;;7.62;97.62;101998.41;4989632;28;20050;-77
2021/11/14 10:02:36;;;;;;;74.07;33.75;;;;;;;7.68;96.95;101998.78;4992971;28;20034;-77
2021/11/14 10:05:02;;;;;;;72.88;34.13;;;;;;;7.74;96.38;102000.94;4952249;28;20396;-78
2021/11/14 10:07:27;;;;;;;66.15;32.65;;;;;;;7.65;95.72;102003.31;4973481;28;20066;-79
2021/11/14 10:09:54;;;;;;;76.45;33.40;;;;;;;7.67;95.58;102004.06;4991099;28;20034;-77
2021/11/14 10:12:22;;;;;;;73.53;34.03;;;;;;;7.63;95.92;102008.63;4970210;28;20407;-78
2021/11/14 10:15:03;;;;;;;68.70;30.77;;;;;;;7.59;96.38;102004.56;4971709;28;20030;-77
2021/11/14 10:17:28;;;;;;;69.20;32.17;;;;;;;7.65;95.93;101998.16;4988053;28;20094;-76
2021/11/14 10:20:06;;;;;;;69.35;31.83;;;;;;;7.62;95.91;102003.56;4973538;28;20124;-77
2021/11/14 10:22:33;;;;;;;69.13;31.63;;;;;;;7.65;96.43;101999.00;4970893;28;20034;-77
2021/11/14 10:24:59;;;;;;;74.60;34.13;;;;;;;7.73;96.19;102003.63;4963814;28;20117;-78
2021/11/14 10:27:26;;;;;;;74.18;34.47;;;;;;;7.77;96.03;102005.06;4989657;28;20045;-78
2021/11/14 10:29:53;;;;;;;69.93;33.65;;;;;;;7.77;96.55;102003.28;4985813;28;20049;-77
2021/11/14 10:32:20;;;;;;;72.63;32.55;;;;;;;7.78;96.39;102011.88;4970410;28;20061;-78
2021/11/14 10:34:52;;;;;;;67.40;31.13;;;;;;;7.74;96.05;102005.25;4970083;28;20030;-77
2021/11/14 10:37:19;;;;;;;63.65;30.50;;;;;;;7.80;96.47;102017.75;4986097;28;20030;-78
2021/11/14 10:39:50;;;;;;;67.18;32.25;;;;;;;7.80;96.32;102017.75;4976297;28;20084;-77
2021/11/14 10:42:18;;;;;;;69.97;33.00;;;;;;;7.83;96.45;102014.94;4974922;28;20074;-78
2021/11/14 10:44:49;;;;;;;65.25;29.27;;;;;;;7.75;94.86;102014.69;4993798;28;20060;-79
2021/11/14 10:47:21;;;;;;;59.78;29.70;;;;;;;7.81;95.07;102011.66;4953667;28;20034;-78
2021/11/14 10:50:08;;;;;;;59.13;29.65;;;;;;;7.86;95.27;102012.16;4971435;28;20450;-79
2021/11/14 10:52:35;;;;;;;56.38;27.95;;;;;;;7.87;94.77;102005.22;4954328;28;20034;-79
2021/11/14 10:55:02;;;;;;;58.67;28.58;;;;;;;7.84;94.44;102008.88;4987269;28;20034;-78
2021/11/14 10:57:32;;;;;;;61.92;28.20;;;;;;;7.82;94.69;102010.72;4965828;28;20030;-78
2021/11/14 10:59:59;;;;;;;55.00;27.73;;;;;;;7.94;94.88;102019.38;4970430;28;20037;-78
2021/11/14 11:02:27;;;;;;;53.60;27.58;;;;;;;7.89;94.85;102017.13;4969915;28;20068;-77
2021/11/14 11:05:07;;;;;;;51.10;26.60;;;;;;;7.84;93.40;102023.53;4986323;28;20042;-80
2021/11/14 11:07:32;;;;;;;52.20;25.95;;;;;;;7.94;92.88;102021.94;4969903;28;20223;-78
2021/11/14 11:09:58;;;;;;;54.60;26.90;;;;;;;7.93;93.59;102026.28;4984510;28;20052;-78
2021/11/14 11:12:27;;;;;;;55.65;25.13;;;;;;;7.95;93.32;102021.84;4968239;28;20238;-78
2021/11/14 11:15:06;;;;;;;48.38;24.67;;;;;;;7.99;93.17;102015.53;4986477;28;20355;-79
2021/11/14 11:17:44;;;;;;;50.08;23.65;;;;;;;8.03;93.63;102020.47;4988751;28;20511;-78
2021/11/14 11:20:11;;;;;;;52.08;25.38;;;;;;;8.08;94.07;102019.22;4974435;28;20045;-79
2021/11/14 11:22:54;;;;;;;47.40;24.17;;;;;;;8.17;94.05;102028.03;4969729;28;20037;-79
2021/11/14 11:25:40;;;;;;;52.83;24.05;;;;;;;8.18;93.14;102024.53;4969714;28;20034;-78
2021/11/14 11:28:14;;;;;;;50.45;24.17;;;;;;;8.16;93.18;102029.81;4981074;28;20038;-79
2021/11/14 11:30:43;;;;;;;43.88;22.15;;;;;;;8.21;93.21;102032.06;4970228;28;20034;-78
2021/11/14 11:33:09;;;;;;;43.25;20.67;;;;;;;8.23;93.08;102031.94;4971306;28;20041;-79
2021/11/14 11:35:35;;;;;;;46.30;23.25;;;;;;;8.28;93.46;102038.44;4969964;28;20034;-79
2021/11/14 11:38:02;;;;;;;43.33;21.40;;;;;;;8.36;93.40;102030.97;4992683;28;20097;-79
2021/11/14 11:40:28;;;;;;;33.35;18.83;;;;;;;8.34;92.33;102034.59;4966645;28;20045;-79
2021/11/14 11:42:54;;;;;;;28.50;15.27;;;;;;;8.46;91.22;102031.16;4987461;28;20034;-79
2021/11/14 11:45:37;;;;;;;27.65;16.00;;;;;;;8.50;90.63;102018.81;4984573;28;21219;-79
2021/11/14 11:48:17;;;;;;;27.40;14.27;;;;;;;8.51;90.35;102023.88;4983854;28;20290;-79
2021/11/14 11:50:44;;;;;;;24.67;13.48;;;;;;;8.54;90.73;102035.75;4970326;28;20046;-79